createdAt,value
2019-01-24T00:05:05.670Z,-2.90
2019-01-24T00:10:11.346Z,-2.90
2019-01-24T00:15:16.815Z,-3.00
2019-01-24T00:20:23.270Z,-2.90
2019-01-24T00:25:28.698Z,-2.90
2019-01-24T00:30:34.461Z,-2.90
2019-01-24T00:35:40.667Z,-3.00
2019-01-24T00:40:46.449Z,-3.10
2019-01-24T00:45:52.268Z,-3.00
2019-01-24T00:50:57.678Z,-2.90
2019-01-24T00:56:03.796Z,-2.90
2019-01-24T01:01:09.582Z,-3.00
2019-01-24T01:06:15.127Z,-3.00
2019-01-24T01:11:20.908Z,-2.90
2019-01-24T01:16:26.679Z,-3.00
2019-01-24T01:21:32.157Z,-3.00
2019-01-24T01:26:38.058Z,-3.00
2019-01-24T01:31:43.830Z,-3.00
2019-01-24T01:36:49.477Z,-3.00
2019-01-24T01:41:54.958Z,-3.00
2019-01-24T01:47:00.815Z,-3.00
2019-01-24T01:52:06.274Z,-3.00
2019-01-24T01:57:11.775Z,-2.90
2019-01-24T02:02:17.186Z,-3.00
2019-01-24T02:07:22.611Z,-2.90
2019-01-24T02:12:28.145Z,-2.90
2019-01-24T02:17:33.919Z,-2.90
2019-01-24T02:22:40.017Z,-2.90
2019-01-24T02:27:45.505Z,-2.90
2019-01-24T02:32:51.325Z,-2.70
2019-01-24T02:37:57.086Z,-2.90
2019-01-24T02:43:03.077Z,-2.90
2019-01-24T02:48:08.831Z,-2.80
2019-01-24T02:53:14.622Z,-2.90
2019-01-24T02:58:20.746Z,-2.80
2019-01-24T03:03:26.861Z,-2.80
2019-01-24T03:08:32.290Z,-2.80
2019-01-24T03:13:37.808Z,-2.90
2019-01-24T03:18:43.234Z,-2.90
2019-01-24T03:23:48.673Z,-2.90
2019-01-24T03:28:54.126Z,-2.90
2019-01-24T03:33:59.880Z,-3.10
2019-01-24T03:39:08.819Z,-3.00
2019-01-24T03:44:14.240Z,-3.00
2019-01-24T03:49:20.337Z,-2.90
2019-01-24T03:54:26.129Z,-2.80
2019-01-24T03:59:32.114Z,-2.80
2019-01-24T04:04:37.606Z,-2.90
2019-01-24T04:09:43.016Z,-2.90
2019-01-24T04:14:48.434Z,-2.90
2019-01-24T04:19:54.004Z,-3.10
2019-01-24T04:24:59.518Z,-3.00
2019-01-24T04:30:06.190Z,-3.00
2019-01-24T04:35:11.778Z,-3.00
2019-01-24T04:40:18.351Z,-3.00
2019-01-24T04:45:24.140Z,-3.10
2019-01-24T04:50:29.924Z,-3.10
2019-01-24T04:55:36.046Z,-3.00
2019-01-24T05:00:41.890Z,-3.00
2019-01-24T05:05:47.309Z,-3.20
2019-01-24T05:10:52.752Z,-3.20
2019-01-24T05:15:58.187Z,-3.30
2019-01-24T05:21:03.658Z,-3.30
2019-01-24T05:26:09.082Z,-3.30
2019-01-24T05:31:14.860Z,-3.30
2019-01-24T05:36:20.360Z,-3.30
2019-01-24T05:41:25.788Z,-3.40
2019-01-24T05:46:31.235Z,-3.40
2019-01-24T05:51:37.126Z,-3.30
2019-01-24T05:56:42.556Z,-3.40
2019-01-24T06:01:48.328Z,-3.40
2019-01-24T06:06:53.783Z,-3.40
2019-01-24T06:11:59.622Z,-3.30
2019-01-24T06:17:05.395Z,-3.20
2019-01-24T06:22:10.843Z,-3.30
2019-01-24T06:27:16.326Z,-3.20
2019-01-24T06:32:21.762Z,-3.20
2019-01-24T06:37:27.560Z,-3.10
2019-01-24T06:42:33.002Z,-3.20
2019-01-24T06:47:38.852Z,-3.30
2019-01-24T06:52:44.281Z,-3.30
2019-01-24T06:57:49.723Z,-3.50
2019-01-24T07:02:55.885Z,-3.50
2019-01-24T07:08:01.649Z,-3.50
2019-01-24T07:13:07.424Z,-3.50
2019-01-24T07:18:12.940Z,-3.50
2019-01-24T07:23:18.371Z,-3.40
2019-01-24T07:28:24.140Z,-3.30
2019-01-24T07:33:29.690Z,-3.40
2019-01-24T07:38:35.171Z,-3.30
2019-01-24T07:43:40.589Z,-3.30
2019-01-24T07:48:46.784Z,-3.30
2019-01-24T07:53:52.634Z,-3.20
2019-01-24T07:58:58.407Z,-3.30
2019-01-24T08:04:03.845Z,-3.40
2019-01-24T08:09:09.662Z,-3.30
2019-01-24T08:14:15.083Z,-3.30
2019-01-24T08:19:20.527Z,-3.20
2019-01-24T08:24:26.313Z,-3.20
2019-01-24T08:29:31.750Z,-3.10
2019-01-24T08:34:37.198Z,-3.10
2019-01-24T08:39:43.036Z,-3.20
2019-01-24T08:44:48.458Z,-3.20
2019-01-24T08:49:53.892Z,-3.10
2019-01-24T08:55:00.013Z,-3.10
2019-01-24T09:00:07.070Z,-3.20
2019-01-24T09:05:12.559Z,-3.30
2019-01-24T09:10:22.651Z,-3.10
2019-01-24T09:15:29.257Z,-3.30
2019-01-24T09:20:34.522Z,-3.20
2019-01-24T09:25:39.941Z,-3.30
2019-01-24T09:30:45.422Z,-3.20
2019-01-24T09:35:51.194Z,-3.30
2019-01-24T09:40:56.662Z,-3.30
2019-01-24T09:46:02.514Z,-3.20
2019-01-24T09:51:07.999Z,-3.10
2019-01-24T09:56:13.774Z,-3.10
2019-01-24T10:01:19.211Z,-3.40
2019-01-24T10:06:24.698Z,-3.30
2019-01-24T10:11:30.134Z,-3.20
2019-01-24T10:16:35.963Z,-3.50
2019-01-24T10:21:41.530Z,-3.70
2019-01-24T10:26:47.372Z,-3.70
2019-01-24T10:31:52.867Z,-3.90
2019-01-24T10:36:58.358Z,-3.70
2019-01-24T10:42:03.798Z,-3.80
2019-01-24T10:47:09.230Z,-4.00
2019-01-24T10:52:14.672Z,-3.90
2019-01-24T10:57:20.931Z,-3.70
2019-01-24T11:02:26.698Z,-3.90
2019-01-24T11:07:32.122Z,-4.10
2019-01-24T11:12:37.599Z,-3.90
2019-01-24T11:17:43.007Z,-4.10
2019-01-24T11:22:48.672Z,-4.00
2019-01-24T11:27:54.787Z,-4.00
2019-01-24T11:33:00.254Z,-3.90
2019-01-24T11:38:07.145Z,-3.90
2019-01-24T11:43:11.335Z,-3.80
2019-01-24T11:48:18.743Z,-3.90
2019-01-24T11:53:24.238Z,-3.70
2019-01-24T11:58:30.102Z,-3.80
2019-01-24T12:03:35.888Z,-3.90
2019-01-24T12:08:41.306Z,-3.70
2019-01-24T12:13:46.734Z,-3.70
2019-01-24T12:18:52.490Z,-3.70
2019-01-24T12:23:57.910Z,-3.90
2019-01-24T12:29:03.687Z,-3.60
2019-01-24T12:34:09.447Z,-3.60
2019-01-24T12:39:14.870Z,-3.60
2019-01-24T12:44:21.288Z,-3.50
2019-01-24T12:49:25.787Z,-3.60
2019-01-24T12:54:31.206Z,-3.60
2019-01-24T12:59:36.994Z,-3.50
2019-01-24T13:04:42.759Z,-3.30
2019-01-24T13:09:48.444Z,-3.30
2019-01-24T13:14:54.213Z,-3.40
2019-01-24T13:20:00.179Z,-3.20
2019-01-24T13:25:08.502Z,-3.30
2019-01-24T13:30:20.289Z,-3.30
2019-01-24T13:35:25.731Z,-3.40
2019-01-24T13:40:32.774Z,-3.30
2019-01-24T13:45:39.910Z,-3.30
2019-01-24T13:50:46.090Z,-3.30
2019-01-24T13:55:52.250Z,-3.20
2019-01-24T14:00:57.994Z,-3.40
2019-01-24T14:06:03.849Z,-3.30
2019-01-24T14:11:09.289Z,-3.30
2019-01-24T14:16:15.417Z,-3.40
2019-01-24T14:21:21.668Z,-3.40
2019-01-24T14:26:27.319Z,-3.40
2019-01-24T14:31:33.290Z,-3.60
2019-01-24T14:36:39.531Z,-3.70
2019-01-24T14:41:45.006Z,-3.70
2019-01-24T14:46:50.578Z,-3.70
2019-01-24T14:51:56.357Z,-3.60
2019-01-24T14:57:02.134Z,-3.60
2019-01-24T15:02:07.960Z,-3.60
2019-01-24T15:07:13.468Z,-3.70
2019-01-24T15:12:19.523Z,-3.70
2019-01-24T15:17:25.594Z,-3.40
2019-01-24T15:22:31.322Z,-3.50
2019-01-24T15:27:37.310Z,-3.40
2019-01-24T15:32:43.170Z,-3.50
2019-01-24T15:37:54.433Z,-3.50
2019-01-24T15:42:54.864Z,-3.60
2019-01-24T15:48:00.314Z,-3.60
2019-01-24T15:53:06.113Z,-3.70
2019-01-24T15:58:11.906Z,-3.50
2019-01-24T16:03:17.349Z,-3.60
2019-01-24T16:08:23.034Z,-3.50
2019-01-24T16:13:28.746Z,-3.60
2019-01-24T16:18:34.859Z,-3.60
2019-01-24T16:23:40.420Z,-3.60
2019-01-24T16:28:46.258Z,-3.50
2019-01-24T16:33:51.918Z,-3.60
2019-01-24T16:38:57.355Z,-3.50
2019-01-24T16:44:02.914Z,-3.60
2019-01-24T16:49:09.226Z,-3.60
2019-01-24T16:54:15.043Z,-3.70
2019-01-24T16:59:20.466Z,-3.60
2019-01-24T17:04:26.582Z,-3.60
2019-01-24T17:09:32.702Z,-3.70
2019-01-24T17:14:38.698Z,-3.60
2019-01-24T17:19:44.451Z,-3.80
2019-01-24T17:24:50.341Z,-3.70
2019-01-24T17:29:55.806Z,-3.60
2019-01-24T17:35:01.259Z,-3.70
2019-01-24T17:40:10.621Z,-3.50
2019-01-24T17:45:16.391Z,-3.60
2019-01-24T17:50:21.814Z,-3.80
2019-01-24T17:55:32.481Z,-3.60
2019-01-24T18:00:39.011Z,-3.70
2019-01-24T18:05:44.615Z,-3.80
2019-01-24T18:10:50.382Z,-3.80
2019-01-24T18:15:55.927Z,-3.80
2019-01-24T18:21:01.715Z,-3.80
2019-01-24T18:26:07.573Z,-3.70
2019-01-24T18:31:13.353Z,-3.70
2019-01-24T18:36:19.214Z,-3.80
2019-01-24T18:41:24.738Z,-3.70
2019-01-24T18:46:30.567Z,-3.60
2019-01-24T18:51:36.795Z,-3.50
2019-01-24T18:56:42.958Z,-3.50
2019-01-24T19:01:48.794Z,-3.70
2019-01-24T19:06:54.305Z,-3.60
2019-01-24T19:11:59.799Z,-3.50
2019-01-24T19:17:05.319Z,-3.40
2019-01-24T19:22:11.534Z,-3.40
2019-01-24T19:27:17.758Z,-3.40
2019-01-24T19:32:23.598Z,-3.50
2019-01-24T19:37:29.110Z,-3.50
2019-01-24T19:42:34.879Z,-3.60
2019-01-24T19:47:40.431Z,-3.50
2019-01-24T19:52:45.854Z,-3.50
2019-01-24T19:57:51.652Z,-3.40
2019-01-24T20:02:57.695Z,-3.50
2019-01-24T20:08:03.442Z,-3.60
2019-01-24T20:13:08.923Z,-3.60
2019-01-24T20:18:14.342Z,-3.70
2019-01-24T20:23:20.195Z,-3.70
2019-01-24T20:28:25.607Z,-3.60
2019-01-24T20:33:31.022Z,-3.70
2019-01-24T20:38:36.611Z,-3.50
2019-01-24T20:43:42.373Z,-3.50
2019-01-24T20:48:47.802Z,-3.60
2019-01-24T20:53:53.909Z,-3.60
2019-01-24T20:58:59.401Z,-3.60
2019-01-24T21:04:05.200Z,-3.60
2019-01-24T21:09:14.657Z,-3.70
2019-01-24T21:14:16.276Z,-3.70
2019-01-24T21:19:21.691Z,-3.70
2019-01-24T21:24:27.102Z,-3.70
2019-01-24T21:29:32.519Z,-3.80
2019-01-24T21:34:37.991Z,-3.60
2019-01-24T21:39:43.407Z,-3.60
2019-01-24T21:44:49.174Z,-3.60
2019-01-24T21:49:54.586Z,-3.60
2019-01-24T21:55:00.342Z,-3.70
2019-01-24T22:00:06.819Z,-3.50
2019-01-24T22:05:12.397Z,-3.60
2019-01-24T22:10:20.859Z,-3.60
2019-01-24T22:15:28.702Z,-3.60
2019-01-24T22:20:34.162Z,-3.50
2019-01-24T22:25:39.593Z,-3.50
2019-01-24T22:30:50.281Z,-3.50
2019-01-24T22:35:55.694Z,-3.60
2019-01-24T22:41:01.483Z,-3.50
2019-01-24T22:46:07.246Z,-3.60
2019-01-24T22:51:13.002Z,-3.60
2019-01-24T22:56:19.145Z,-3.60
2019-01-24T23:01:37.662Z,-3.50
2019-01-24T23:06:43.410Z,-3.50
2019-01-24T23:11:48.852Z,-3.60
2019-01-24T23:16:54.974Z,-3.50
2019-01-24T23:22:00.426Z,-3.50
2019-01-24T23:27:05.897Z,-3.50
2019-01-24T23:32:11.644Z,-3.50
2019-01-24T23:37:17.422Z,-3.50
2019-01-24T23:42:23.194Z,-3.40
2019-01-24T23:47:29.006Z,-3.40
2019-01-24T23:52:34.810Z,-3.50
2019-01-24T23:57:40.050Z,-3.60
